CYYZ/YYZ METAR and TAF weather

Enter ICAO airport designator
Station Type Date Time Source
CYYZ METAR 2019/04/21 10:00 UTC NOAA

CYYZ 211000Z VRB02KT 12SM FEW015 OVC028 06/05 A2986 RMK CF1SC8 CF TR SLP116


Station Type Date Time Source
CYYZ Decoded METAR 2019/04/21 10:00 UTC NOAA

Toronto Pearson Int'L. Ont., Canada (CYYZ) 43-40N 079-38W 173M
Apr 21, 2019 - 06:00 AM EDT / 2019.04.21 1000 UTC
Wind: Variable at 2 MPH (2 KT):0
Visibility: 12 mile(s):0
Sky conditions: overcast
Temperature: 42 F (6 C)
Dew Point: 41 F (5 C)
Relative Humidity: 93%
Pressure (altimeter): 29.86 in. Hg (1011 hPa)
ob: CYYZ 211000Z VRB02KT 12SM FEW015 OVC028 06/05 A2986 RMK CF1SC8 CF TR SLP116
cycle: 10

Station Type Date Time Source
CYYZ TAF 2019/04/21 10:19 UTC NOAA

TAF
AMD CYYZ 211015Z 2110/2212 VRB03KT P6SM SCT004 OVC025
TEMPO 2110/2114 2SM -DZ BR BKN004 OVC015 PROB30 2110/2113 1/2SM FG VV002
FM211400 20008KT P6SM SCT008 OVC015
TEMPO 2114/2117 6SM -DZ BR BKN008 OVC015
FM211700 20008KT P6SM -DZ -RA OVC020
TEMPO 2117/2121 P6SM NSW BKN025 OVC080
FM212100 14005KT P6SM SCT015 BKN025
FM212300 14005KT P6SM SCT025 SCT120
FM221000 32005KT P6SM SCT020 BKN080
RMK NXT FCST BY 211200Z

Example: see airport list